createdAt,value
2023-05-17T00:00:10.331Z,90.52
2023-05-17T00:02:37.753Z,90.20
2023-05-17T00:05:05.116Z,90.27
2023-05-17T00:07:31.704Z,90.27
2023-05-17T00:09:58.107Z,89.98
2023-05-17T00:12:24.540Z,90.05
2023-05-17T00:14:51.142Z,90.26
2023-05-17T00:17:17.616Z,90.27
2023-05-17T00:19:44.242Z,90.29
2023-05-17T00:22:10.742Z,90.40
2023-05-17T00:24:37.226Z,90.78
2023-05-17T00:27:03.878Z,90.79
2023-05-17T00:29:30.390Z,91.07
2023-05-17T00:31:56.836Z,91.03
2023-05-17T00:34:23.750Z,91.67
2023-05-17T00:36:50.380Z,91.81
2023-05-17T00:39:18.283Z,91.74
2023-05-17T00:41:44.816Z,91.83
2023-05-17T00:44:11.843Z,91.85
2023-05-17T00:46:38.324Z,92.54
2023-05-17T00:49:04.965Z,92.84
2023-05-17T00:51:31.723Z,92.88
2023-05-17T00:53:59.463Z,93.22
2023-05-17T00:56:25.933Z,93.59
2023-05-17T00:58:54.121Z,93.94
2023-05-17T01:01:21.282Z,93.74
2023-05-17T01:03:48.457Z,93.82
2023-05-17T01:06:15.216Z,93.81
2023-05-17T01:08:42.826Z,93.68
2023-05-17T01:11:31.109Z,93.79
2023-05-17T01:14:35.301Z,93.70
2023-05-17T01:17:06.143Z,94.68
2023-05-17T01:19:45.415Z,94.95
2023-05-17T01:22:34.108Z,95.17
2023-05-17T01:25:37.623Z,95.75
2023-05-17T01:28:06.154Z,96.32
2023-05-17T01:30:34.335Z,96.25
2023-05-17T01:33:02.573Z,96.62
2023-05-17T01:35:29.739Z,96.80
2023-05-17T01:37:56.429Z,97.13
2023-05-17T01:40:24.396Z,97.30
2023-05-17T01:43:10.630Z,97.83
2023-05-17T01:46:05.569Z,98.68
2023-05-17T01:48:36.931Z,98.39
2023-05-17T01:51:04.263Z,98.63
2023-05-17T01:53:42.658Z,99.17
2023-05-17T01:56:14.861Z,99.14
2023-05-17T01:58:46.510Z,99.63
2023-05-17T02:01:15.803Z,99.88
2023-05-17T02:03:42.793Z,99.97
2023-05-17T02:06:09.354Z,100.00
2023-05-17T02:08:35.858Z,100.00
2023-05-17T02:11:02.392Z,100.00
2023-05-17T02:13:30.671Z,100.00
2023-05-17T02:16:00.919Z,100.00
2023-05-17T02:18:28.031Z,100.00
2023-05-17T02:20:55.034Z,100.00
2023-05-17T02:23:21.543Z,100.00
2023-05-17T02:25:48.010Z,100.00
2023-05-17T02:28:14.453Z,100.00
2023-05-17T02:30:40.896Z,100.00
2023-05-17T02:33:08.235Z,100.00
2023-05-17T02:35:34.814Z,100.00
2023-05-17T02:38:01.496Z,100.00
2023-05-17T02:40:27.932Z,100.00
2023-05-17T02:42:54.488Z,100.00
2023-05-17T02:45:20.933Z,100.00
2023-05-17T02:47:47.559Z,100.00
2023-05-17T02:50:14.413Z,100.00
2023-05-17T02:52:41.484Z,100.00
2023-05-17T02:55:08.339Z,100.00
2023-05-17T02:57:34.822Z,100.00
2023-05-17T03:00:02.052Z,100.00
2023-05-17T03:02:29.096Z,100.00
2023-05-17T03:04:55.760Z,100.00
2023-05-17T03:07:22.533Z,100.00
2023-05-17T03:09:49.302Z,100.00
2023-05-17T03:12:15.963Z,100.00
2023-05-17T03:14:42.657Z,100.00
2023-05-17T03:17:09.621Z,100.00
2023-05-17T03:19:36.168Z,100.00
2023-05-17T03:22:03.769Z,100.00
2023-05-17T03:24:32.858Z,100.00
2023-05-17T03:27:00.229Z,100.00
2023-05-17T03:29:26.856Z,100.00
2023-05-17T03:31:53.436Z,100.00
2023-05-17T03:34:19.984Z,100.00
2023-05-17T03:36:46.875Z,100.00
2023-05-17T03:39:13.618Z,100.00
2023-05-17T03:41:42.200Z,100.00
2023-05-17T03:44:09.983Z,100.00
2023-05-17T03:46:37.226Z,100.00
2023-05-17T03:49:04.706Z,100.00
2023-05-17T03:51:33.024Z,100.00
2023-05-17T03:54:01.236Z,100.00
2023-05-17T03:56:29.381Z,100.00
2023-05-17T03:58:55.818Z,100.00
2023-05-17T04:01:22.868Z,100.00
2023-05-17T04:03:49.540Z,100.00
2023-05-17T04:06:16.562Z,100.00
2023-05-17T04:08:43.911Z,100.00
2023-05-17T04:11:12.795Z,100.00
2023-05-17T04:13:40.744Z,100.00
2023-05-17T04:16:08.779Z,100.00
2023-05-17T04:18:38.008Z,100.00
2023-05-17T04:21:05.407Z,100.00
2023-05-17T04:23:34.161Z,100.00
2023-05-17T04:26:02.035Z,100.00
2023-05-17T04:28:31.120Z,100.00
2023-05-17T04:30:58.025Z,100.00
2023-05-17T04:33:24.704Z,100.00
2023-05-17T04:35:54.801Z,100.00
2023-05-17T04:38:24.088Z,100.00
2023-05-17T04:40:51.154Z,100.00
2023-05-17T04:43:17.964Z,100.00
2023-05-17T04:45:45.034Z,100.00
2023-05-17T04:48:11.902Z,100.00
2023-05-17T04:50:38.566Z,100.00
2023-05-17T04:53:05.100Z,100.00
2023-05-17T04:55:34.631Z,100.00
2023-05-17T04:58:01.159Z,100.00
2023-05-17T05:00:28.098Z,100.00
2023-05-17T05:03:01.410Z,100.00
2023-05-17T05:05:28.373Z,100.00
2023-05-17T05:07:55.171Z,100.00
2023-05-17T05:10:21.793Z,100.00
2023-05-17T05:12:48.636Z,100.00
2023-05-17T05:15:15.647Z,100.00
2023-05-17T05:17:48.606Z,100.00
2023-05-17T05:20:15.667Z,100.00
2023-05-17T05:22:43.041Z,100.00
2023-05-17T05:25:10.417Z,100.00
2023-05-17T05:27:37.032Z,100.00
2023-05-17T05:30:04.127Z,100.00
2023-05-17T05:32:32.221Z,100.00
2023-05-17T05:34:58.864Z,100.00
2023-05-17T05:37:25.912Z,100.00
2023-05-17T05:39:53.298Z,100.00
2023-05-17T05:42:20.076Z,100.00
2023-05-17T05:44:46.591Z,100.00
2023-05-17T05:47:13.579Z,100.00
2023-05-17T05:49:40.036Z,100.00
2023-05-17T05:52:06.579Z,100.00
2023-05-17T05:54:36.218Z,100.00
2023-05-17T05:57:02.770Z,100.00
2023-05-17T05:59:30.495Z,100.00
2023-05-17T06:01:58.858Z,100.00
2023-05-17T06:04:33.065Z,100.00
2023-05-17T06:07:10.846Z,100.00
2023-05-17T06:09:38.429Z,100.00
2023-05-17T06:12:05.300Z,100.00
2023-05-17T06:14:31.748Z,100.00
2023-05-17T06:16:58.207Z,100.00
2023-05-17T06:19:25.122Z,96.81
2023-05-17T06:21:51.720Z,97.45
2023-05-17T06:24:18.203Z,97.11
2023-05-17T06:26:44.738Z,95.48
2023-05-17T06:29:11.183Z,95.41
2023-05-17T06:31:37.648Z,95.41
2023-05-17T06:34:04.269Z,95.17
2023-05-17T06:36:32.395Z,94.92
2023-05-17T06:38:59.620Z,92.64
2023-05-17T06:41:26.248Z,91.01
2023-05-17T06:43:52.673Z,87.87
2023-05-17T06:46:19.116Z,87.66
2023-05-17T06:48:47.390Z,85.56
2023-05-17T06:51:15.874Z,84.12
2023-05-17T06:53:42.365Z,84.55
2023-05-17T06:56:08.834Z,83.94
2023-05-17T06:58:35.612Z,81.66
2023-05-17T07:01:02.103Z,81.75
2023-05-17T07:03:28.669Z,82.31
2023-05-17T07:05:55.210Z,82.80
2023-05-17T07:08:21.749Z,82.02
2023-05-17T07:10:51.725Z,81.00
2023-05-17T07:13:18.870Z,80.73
2023-05-17T07:15:46.175Z,80.89
2023-05-17T07:18:12.738Z,80.09
2023-05-17T07:20:39.283Z,78.98
2023-05-17T07:23:05.972Z,78.12
2023-05-17T07:25:32.937Z,77.93
2023-05-17T07:27:59.662Z,76.00
2023-05-17T07:30:26.285Z,74.19
2023-05-17T07:32:52.800Z,75.59
2023-05-17T07:35:21.678Z,72.45
2023-05-17T07:37:48.543Z,72.40
2023-05-17T07:40:15.413Z,72.64
2023-05-17T07:42:41.832Z,72.17
2023-05-17T07:45:08.962Z,72.08
2023-05-17T07:47:35.575Z,69.57
2023-05-17T07:50:03.770Z,70.93
2023-05-17T07:52:30.253Z,72.01
2023-05-17T07:54:56.663Z,71.32
2023-05-17T07:57:23.225Z,70.84
2023-05-17T07:59:49.657Z,70.36
2023-05-17T08:02:16.873Z,70.54
2023-05-17T08:04:43.420Z,71.84
2023-05-17T08:07:09.874Z,70.08
2023-05-17T08:09:36.365Z,69.36
2023-05-17T08:12:03.788Z,69.00
2023-05-17T08:14:30.271Z,68.71
2023-05-17T08:16:56.703Z,68.94
2023-05-17T08:19:23.252Z,65.26
2023-05-17T08:21:49.846Z,64.93
2023-05-17T08:24:17.540Z,62.96
2023-05-17T08:26:44.030Z,63.31
2023-05-17T08:29:10.934Z,64.30
2023-05-17T08:31:37.486Z,62.54
2023-05-17T08:34:04.158Z,63.39
2023-05-17T08:36:30.766Z,63.55
2023-05-17T08:38:57.246Z,63.73
2023-05-17T08:41:24.464Z,64.42
2023-05-17T08:43:51.606Z,63.71
2023-05-17T08:46:21.729Z,65.07
2023-05-17T08:48:51.856Z,63.83
2023-05-17T08:51:19.837Z,63.74
2023-05-17T08:53:47.189Z,63.87
2023-05-17T08:56:16.377Z,63.67
2023-05-17T08:58:55.485Z,62.58
2023-05-17T09:01:26.533Z,60.62
2023-05-17T09:03:54.682Z,59.62
2023-05-17T09:06:22.594Z,60.82
2023-05-17T09:08:54.440Z,60.46
2023-05-17T09:11:29.284Z,59.63
2023-05-17T09:14:00.377Z,57.54
2023-05-17T09:16:36.201Z,56.59
2023-05-17T09:19:07.450Z,58.68
2023-05-17T09:21:36.199Z,58.49
2023-05-17T09:24:07.051Z,59.18
2023-05-17T09:26:45.698Z,57.98
2023-05-17T09:29:14.913Z,53.69
2023-05-17T09:31:41.999Z,53.52
2023-05-17T09:34:09.112Z,53.30
2023-05-17T09:36:38.433Z,54.54
2023-05-17T09:39:07.879Z,54.31
2023-05-17T09:41:47.379Z,51.87
2023-05-17T09:44:15.436Z,53.65
2023-05-17T09:46:44.708Z,53.65
2023-05-17T09:49:12.348Z,51.85
2023-05-17T09:51:43.281Z,52.63
2023-05-17T09:54:10.974Z,52.14
2023-05-17T09:56:38.196Z,52.68
2023-05-17T09:59:14.439Z,51.07
2023-05-17T10:01:42.565Z,51.74
2023-05-17T10:04:10.699Z,52.12
2023-05-17T10:06:46.454Z,50.18
2023-05-17T10:09:17.116Z,51.09
2023-05-17T10:11:46.700Z,50.99
2023-05-17T10:14:33.721Z,48.67
2023-05-17T10:17:03.434Z,48.84
2023-05-17T10:19:30.723Z,47.84
2023-05-17T10:22:05.182Z,48.44
2023-05-17T10:24:46.459Z,49.47
2023-05-17T10:27:13.314Z,48.21
2023-05-17T10:29:41.179Z,48.62
2023-05-17T10:32:08.044Z,47.64
2023-05-17T10:34:39.496Z,47.54
2023-05-17T10:37:06.730Z,46.03
2023-05-17T10:39:34.786Z,46.43
2023-05-17T10:42:14.265Z,46.02
2023-05-17T10:44:42.561Z,43.09
2023-05-17T10:47:11.110Z,43.95
2023-05-17T10:49:39.578Z,44.96
2023-05-17T10:52:32.160Z,43.96
2023-05-17T10:54:59.562Z,44.59
2023-05-17T10:57:49.975Z,45.00
2023-05-17T11:00:27.647Z,42.26
2023-05-17T11:03:12.229Z,41.45
2023-05-17T11:05:43.679Z,40.86
2023-05-17T11:08:17.919Z,42.27
2023-05-17T11:11:14.017Z,41.39
2023-05-17T11:13:54.165Z,41.85
2023-05-17T11:16:22.427Z,42.88
2023-05-17T11:18:54.048Z,42.95
2023-05-17T11:21:22.628Z,41.98
2023-05-17T11:23:56.350Z,40.95
2023-05-17T11:26:34.140Z,39.51
2023-05-17T11:29:04.866Z,39.36
2023-05-17T11:31:36.806Z,38.00
2023-05-17T11:34:04.559Z,36.96
2023-05-17T11:36:32.271Z,37.62
2023-05-17T11:39:11.931Z,37.58
2023-05-17T11:41:41.505Z,35.96
2023-05-17T11:44:11.296Z,35.27
2023-05-17T11:46:39.192Z,34.12
2023-05-17T11:49:09.126Z,32.83
2023-05-17T11:51:36.402Z,32.56
2023-05-17T11:54:04.167Z,31.24
2023-05-17T11:56:43.556Z,30.90
2023-05-17T11:59:10.862Z,31.07
2023-05-17T12:01:47.545Z,30.47
2023-05-17T12:04:14.459Z,30.93
2023-05-17T12:06:41.411Z,30.03
2023-05-17T12:09:10.872Z,29.67
2023-05-17T12:11:39.433Z,29.55
2023-05-17T12:14:06.535Z,29.30
2023-05-17T12:16:36.285Z,27.77
2023-05-17T12:19:03.805Z,28.54
2023-05-17T12:21:30.440Z,28.45
2023-05-17T12:23:56.883Z,28.08
2023-05-17T12:26:23.631Z,28.37
2023-05-17T12:28:58.558Z,28.57
2023-05-17T12:31:38.271Z,28.58
2023-05-17T12:34:06.557Z,27.98
2023-05-17T12:36:34.005Z,27.32
2023-05-17T12:39:01.568Z,27.67
2023-05-17T12:41:30.002Z,27.29
2023-05-17T12:44:06.228Z,27.31
2023-05-17T12:46:40.895Z,27.82
2023-05-17T12:49:12.290Z,27.31
2023-05-17T12:51:41.125Z,26.70
2023-05-17T12:54:07.781Z,27.00
2023-05-17T12:56:34.292Z,26.64
2023-05-17T12:59:25.528Z,26.06
2023-05-17T13:01:55.663Z,25.52
2023-05-17T13:04:31.591Z,25.18
2023-05-17T13:07:01.335Z,25.12
2023-05-17T13:09:33.432Z,25.34
2023-05-17T13:12:02.094Z,25.88
2023-05-17T13:14:46.548Z,25.71
2023-05-17T13:17:21.028Z,25.29
2023-05-17T13:19:47.716Z,25.37
2023-05-17T13:22:15.616Z,24.66
2023-05-17T13:24:43.967Z,24.28
2023-05-17T13:27:11.805Z,24.43
2023-05-17T13:29:41.529Z,24.79
2023-05-17T13:32:09.939Z,24.97
2023-05-17T13:34:36.663Z,24.50
2023-05-17T13:37:04.163Z,24.31
2023-05-17T13:39:30.783Z,24.79
2023-05-17T13:41:58.057Z,25.09
2023-05-17T13:44:24.981Z,25.21
2023-05-17T13:46:51.555Z,25.66
2023-05-17T13:49:18.263Z,25.62
2023-05-17T13:51:45.853Z,25.46
2023-05-17T13:54:12.617Z,25.03
2023-05-17T13:56:39.224Z,25.35
2023-05-17T13:59:05.752Z,25.12
2023-05-17T14:01:32.260Z,25.27
2023-05-17T14:04:00.580Z,25.45
2023-05-17T14:06:27.524Z,25.41
2023-05-17T14:08:55.369Z,25.58
2023-05-17T14:11:21.926Z,24.72
2023-05-17T14:13:48.363Z,27.05
2023-05-17T14:16:14.949Z,26.21
2023-05-17T14:18:41.653Z,25.83
2023-05-17T14:21:08.407Z,25.64
2023-05-17T14:23:35.444Z,25.32
2023-05-17T14:26:04.976Z,26.05
2023-05-17T14:28:31.491Z,25.52
2023-05-17T14:30:57.951Z,26.07
2023-05-17T14:33:25.650Z,26.54
2023-05-17T14:35:52.264Z,27.90
2023-05-17T14:38:20.333Z,26.71
2023-05-17T14:40:46.909Z,27.02
2023-05-17T14:43:13.402Z,27.33
2023-05-17T14:45:39.886Z,29.30
2023-05-17T14:48:06.663Z,28.05
2023-05-17T14:50:34.577Z,27.08
2023-05-17T14:53:01.078Z,27.14
2023-05-17T14:55:27.692Z,27.12
2023-05-17T14:57:54.719Z,26.42
2023-05-17T15:00:22.269Z,26.69
2023-05-17T15:02:48.778Z,26.98
2023-05-17T15:05:15.308Z,26.70
2023-05-17T15:07:42.304Z,26.79
2023-05-17T15:10:10.287Z,27.06
2023-05-17T15:12:36.761Z,27.38
2023-05-17T15:15:03.417Z,27.56
2023-05-17T15:17:29.906Z,27.52
2023-05-17T15:19:56.682Z,27.51
2023-05-17T15:22:24.197Z,27.73
2023-05-17T15:24:51.514Z,27.95
2023-05-17T15:27:18.344Z,27.63
2023-05-17T15:29:44.853Z,28.19
2023-05-17T15:32:11.459Z,28.11
2023-05-17T15:34:38.030Z,28.29
2023-05-17T15:37:04.565Z,28.43
2023-05-17T15:39:31.299Z,28.55
2023-05-17T15:41:57.876Z,28.47
2023-05-17T15:44:24.429Z,28.88
2023-05-17T15:46:50.940Z,28.93
2023-05-17T15:49:17.400Z,28.88
2023-05-17T15:51:44.165Z,28.98
2023-05-17T15:54:10.663Z,28.95
2023-05-17T15:56:38.242Z,28.41
2023-05-17T15:59:05.619Z,28.71
2023-05-17T16:01:32.082Z,28.75
2023-05-17T16:03:58.642Z,29.02
2023-05-17T16:06:25.217Z,28.84
2023-05-17T16:08:51.683Z,29.22
2023-05-17T16:11:18.139Z,29.12
2023-05-17T16:13:44.571Z,29.00
2023-05-17T16:16:13.251Z,29.34
2023-05-17T16:18:39.999Z,28.98
2023-05-17T16:21:07.781Z,29.38
2023-05-17T16:23:34.401Z,29.49
2023-05-17T16:26:01.379Z,30.06
2023-05-17T16:28:28.174Z,29.55
2023-05-17T16:30:54.759Z,29.89
2023-05-17T16:33:21.483Z,30.47
2023-05-17T16:35:51.565Z,30.37
2023-05-17T16:38:18.117Z,30.64
2023-05-17T16:40:44.618Z,30.45
2023-05-17T16:43:15.708Z,30.08
2023-05-17T16:45:45.473Z,30.47
2023-05-17T16:48:14.164Z,30.49
2023-05-17T16:50:41.777Z,30.41
2023-05-17T16:53:08.632Z,30.82
2023-05-17T16:55:36.230Z,31.06
2023-05-17T16:58:02.778Z,31.09
2023-05-17T17:00:29.985Z,30.84
2023-05-17T17:02:58.146Z,31.52
2023-05-17T17:05:25.118Z,31.72
2023-05-17T17:07:51.625Z,31.52
2023-05-17T17:10:19.920Z,31.44
2023-05-17T17:12:48.105Z,31.44
2023-05-17T17:15:15.476Z,31.58
2023-05-17T17:17:42.508Z,31.65
2023-05-17T17:20:09.530Z,32.00
2023-05-17T17:22:36.104Z,32.15
2023-05-17T17:25:02.596Z,31.98
2023-05-17T17:27:29.118Z,32.27
2023-05-17T17:29:55.796Z,32.40
2023-05-17T17:32:22.353Z,32.54
2023-05-17T17:34:48.932Z,32.10
2023-05-17T17:37:16.075Z,32.17
2023-05-17T17:39:42.649Z,33.05
2023-05-17T17:42:10.185Z,33.26
2023-05-17T17:44:36.695Z,32.86
2023-05-17T17:47:03.272Z,33.01
2023-05-17T17:49:30.136Z,33.07
2023-05-17T17:51:58.107Z,33.52
2023-05-17T17:54:25.014Z,33.91
2023-05-17T17:56:52.026Z,34.03
2023-05-17T17:59:18.453Z,34.57
2023-05-17T18:01:45.026Z,34.75
2023-05-17T18:04:13.318Z,34.75
2023-05-17T18:06:41.713Z,34.40
2023-05-17T18:09:08.637Z,34.70
2023-05-17T18:11:35.182Z,34.57
2023-05-17T18:14:02.444Z,35.06
2023-05-17T18:16:29.055Z,34.80
2023-05-17T18:18:55.587Z,34.92
2023-05-17T18:21:22.127Z,34.96
2023-05-17T18:23:48.529Z,35.18
2023-05-17T18:26:14.956Z,35.43
2023-05-17T18:28:42.851Z,35.53
2023-05-17T18:31:09.568Z,35.87
2023-05-17T18:33:36.012Z,36.43
2023-05-17T18:36:02.600Z,36.14
2023-05-17T18:38:29.958Z,37.18
2023-05-17T18:40:56.853Z,37.39
2023-05-17T18:43:23.480Z,37.30
2023-05-17T18:45:51.190Z,37.42
2023-05-17T18:48:18.362Z,37.54
2023-05-17T18:50:44.880Z,37.79
2023-05-17T18:53:12.723Z,38.65
2023-05-17T18:55:39.149Z,39.25
2023-05-17T18:58:05.599Z,38.70
2023-05-17T19:00:32.210Z,39.64
2023-05-17T19:02:58.890Z,41.27
2023-05-17T19:05:25.630Z,41.06
2023-05-17T19:07:52.083Z,41.70
2023-05-17T19:10:19.787Z,42.70
2023-05-17T19:12:46.332Z,42.81
2023-05-17T19:15:13.071Z,43.14
2023-05-17T19:17:39.766Z,43.31
2023-05-17T19:20:07.133Z,44.28
2023-05-17T19:22:35.658Z,44.82
2023-05-17T19:25:02.412Z,44.63
2023-05-17T19:27:28.886Z,45.55
2023-05-17T19:29:55.791Z,46.47
2023-05-17T19:32:22.753Z,47.02
2023-05-17T19:34:49.777Z,47.30
2023-05-17T19:37:16.401Z,48.50
2023-05-17T19:39:42.831Z,47.94
2023-05-17T19:42:09.832Z,48.43
2023-05-17T19:44:36.276Z,49.17
2023-05-17T19:47:02.694Z,49.24
2023-05-17T19:49:29.215Z,50.67
2023-05-17T19:52:00.389Z,51.37
2023-05-17T19:54:30.322Z,52.06
2023-05-17T19:56:57.445Z,52.61
2023-05-17T19:59:23.945Z,52.79
2023-05-17T20:01:50.538Z,53.01
2023-05-17T20:04:17.153Z,53.22
2023-05-17T20:06:43.872Z,54.07
2023-05-17T20:09:10.454Z,55.32
2023-05-17T20:11:36.967Z,56.00
2023-05-17T20:14:03.412Z,56.56
2023-05-17T20:16:30.743Z,57.32
2023-05-17T20:19:00.779Z,57.71
2023-05-17T20:21:27.322Z,57.19
2023-05-17T20:24:00.539Z,56.69
2023-05-17T20:26:31.278Z,56.06
2023-05-17T20:28:58.891Z,55.50
2023-05-17T20:31:25.853Z,56.21
2023-05-17T20:33:52.909Z,56.48
2023-05-17T20:36:19.948Z,57.57
2023-05-17T20:38:46.727Z,57.90
2023-05-17T20:41:14.706Z,58.28
2023-05-17T20:43:45.214Z,59.87
2023-05-17T20:46:15.795Z,60.85
2023-05-17T20:48:43.131Z,61.00
2023-05-17T20:51:10.594Z,61.22
2023-05-17T20:53:37.708Z,61.33
2023-05-17T20:56:04.659Z,61.89
2023-05-17T20:58:31.395Z,62.04
2023-05-17T21:00:59.814Z,62.62
2023-05-17T21:03:33.892Z,63.14
2023-05-17T21:06:02.007Z,64.42
2023-05-17T21:08:28.598Z,63.90
2023-05-17T21:10:55.730Z,62.95
2023-05-17T21:13:23.787Z,63.27
2023-05-17T21:15:50.400Z,62.52
2023-05-17T21:18:16.979Z,61.60
2023-05-17T21:20:43.504Z,61.84
2023-05-17T21:23:10.289Z,61.41
2023-05-17T21:25:37.654Z,63.61
2023-05-17T21:28:05.691Z,61.99
2023-05-17T21:30:32.224Z,61.94
2023-05-17T21:32:59.311Z,61.58
2023-05-17T21:35:25.883Z,62.45
2023-05-17T21:37:52.499Z,61.95
2023-05-17T21:40:19.195Z,62.88
2023-05-17T21:42:46.118Z,63.14
2023-05-17T21:45:14.548Z,65.05
2023-05-17T21:47:41.221Z,65.58
2023-05-17T21:50:07.953Z,66.19
2023-05-17T21:52:34.639Z,65.54
2023-05-17T21:55:01.183Z,66.92
2023-05-17T21:57:27.725Z,67.32
2023-05-17T21:59:54.144Z,68.21
2023-05-17T22:02:20.865Z,68.50
2023-05-17T22:04:47.367Z,68.52
2023-05-17T22:07:13.995Z,69.19
2023-05-17T22:09:40.444Z,69.16
2023-05-17T22:12:09.192Z,69.79
2023-05-17T22:14:36.375Z,69.49
2023-05-17T22:17:08.984Z,70.38
2023-05-17T22:19:40.420Z,71.21
2023-05-17T22:22:08.077Z,71.77
2023-05-17T22:24:34.890Z,72.64
2023-05-17T22:27:02.235Z,73.33
2023-05-17T22:29:29.230Z,73.98
2023-05-17T22:31:55.769Z,72.52
2023-05-17T22:34:22.300Z,72.46
2023-05-17T22:36:49.006Z,72.35
2023-05-17T22:39:15.414Z,72.92
2023-05-17T22:41:41.983Z,71.89
2023-05-17T22:44:08.442Z,72.22
2023-05-17T22:46:35.059Z,73.32
2023-05-17T22:49:01.643Z,73.51
2023-05-17T22:51:29.915Z,74.54
2023-05-17T22:53:56.772Z,74.71
2023-05-17T22:56:23.289Z,75.75
2023-05-17T22:58:49.982Z,75.93
2023-05-17T23:01:16.496Z,74.14
2023-05-17T23:03:43.040Z,74.81
2023-05-17T23:06:09.595Z,72.21
2023-05-17T23:08:36.430Z,70.92
2023-05-17T23:11:05.256Z,69.49
2023-05-17T23:13:31.691Z,70.30
2023-05-17T23:15:58.173Z,68.86
2023-05-17T23:18:27.284Z,68.84
2023-05-17T23:20:53.872Z,69.03
2023-05-17T23:23:22.892Z,68.07
2023-05-17T23:25:50.835Z,67.82
2023-05-17T23:28:18.774Z,67.93
2023-05-17T23:30:48.480Z,67.42
2023-05-17T23:33:15.428Z,67.62
2023-05-17T23:35:41.879Z,68.21
2023-05-17T23:38:08.364Z,67.36
2023-05-17T23:40:34.833Z,68.15
2023-05-17T23:43:01.281Z,68.92
2023-05-17T23:45:28.064Z,68.40
2023-05-17T23:47:54.670Z,68.56
2023-05-17T23:50:21.223Z,69.54
2023-05-17T23:52:47.888Z,70.65
2023-05-17T23:55:14.431Z,70.28
2023-05-17T23:57:42.262Z,69.47
